createdAt,value
2023-03-26T03:40:35.831Z,99.99
2023-03-26T03:41:36.850Z,99.99
2023-03-26T03:42:36.815Z,99.99
2023-03-26T03:43:36.829Z,99.99
2023-03-26T03:52:10.462Z,99.99
2023-03-26T03:53:11.398Z,99.99
2023-03-26T03:54:11.416Z,99.99
2023-03-26T03:55:11.344Z,99.99
2023-03-26T03:56:11.312Z,99.99
2023-03-26T03:57:11.353Z,99.99
2023-03-26T03:58:11.290Z,99.99
2023-03-26T03:59:11.273Z,99.99
2023-03-26T04:00:11.476Z,99.99
2023-03-26T04:01:11.263Z,99.99
2023-03-26T04:02:11.276Z,99.99
2023-03-26T04:03:11.335Z,99.99
2023-03-26T04:04:11.324Z,99.99
2023-03-26T04:05:11.248Z,99.99
2023-03-26T04:06:11.219Z,99.99
2023-03-26T04:07:11.193Z,99.99
2023-03-26T04:08:11.193Z,99.99
2023-03-26T04:09:11.198Z,99.99
2023-03-26T04:10:11.225Z,99.99
2023-03-26T04:11:11.165Z,99.99
2023-03-26T04:12:11.156Z,99.99
2023-03-26T04:13:11.126Z,99.99
2023-03-26T04:14:11.135Z,99.99
2023-03-26T04:15:11.097Z,99.99
2023-03-26T04:16:11.180Z,99.99
2023-03-26T04:17:11.090Z,99.99
2023-03-26T04:18:11.067Z,99.99
2023-03-26T04:19:11.084Z,99.99
2023-03-26T04:20:11.055Z,99.99
2023-03-26T04:21:11.052Z,99.99
2023-03-26T04:22:11.046Z,99.99
2023-03-26T04:23:11.040Z,99.99
2023-03-26T04:24:11.010Z,99.99
2023-03-26T04:25:11.010Z,99.99
2023-03-26T04:26:10.988Z,99.99
2023-03-26T04:27:11.010Z,99.99
2023-03-26T04:28:10.975Z,99.99
2023-03-26T04:29:11.002Z,99.99
2023-03-26T04:30:10.947Z,99.99
2023-03-26T04:31:11.026Z,99.99
2023-03-26T04:32:10.952Z,99.99
2023-03-26T04:33:10.923Z,99.99
2023-03-26T04:34:10.903Z,99.99
2023-03-26T04:35:10.921Z,99.99
2023-03-26T04:36:10.952Z,99.99
2023-03-26T04:37:10.916Z,99.99
2023-03-26T04:38:10.881Z,99.99
2023-03-26T04:39:10.909Z,99.99
2023-03-26T04:40:10.850Z,99.96
2023-03-26T04:41:10.831Z,99.99
2023-03-26T04:42:10.833Z,99.99
2023-03-26T04:43:10.842Z,99.99
2023-03-26T04:44:10.814Z,99.99
2023-03-26T04:45:10.843Z,99.99
2023-03-26T04:46:10.790Z,99.99
2023-03-26T04:47:10.786Z,99.99
2023-03-26T04:48:10.806Z,99.99
2023-03-26T04:49:10.772Z,99.99
2023-03-26T04:50:10.751Z,99.99
2023-03-26T04:51:10.755Z,99.99
2023-03-26T04:52:10.672Z,99.99
2023-03-26T04:53:10.682Z,99.99
2023-03-26T04:54:10.652Z,99.99
2023-03-26T04:55:10.632Z,99.99
2023-03-26T04:56:10.634Z,99.99
2023-03-26T04:57:10.718Z,99.99
2023-03-26T06:27:14.075Z,99.51
2023-03-26T06:28:15.164Z,99.40
2023-03-26T07:43:08.882Z,96.53
2023-03-26T07:44:09.555Z,96.43
2023-03-26T07:50:16.068Z,96.69
2023-03-26T07:51:15.752Z,96.59
2023-03-26T07:52:15.933Z,96.69
2023-03-26T07:53:15.666Z,96.80
2023-03-26T07:54:16.348Z,96.59
2023-03-26T07:55:15.576Z,96.28
2023-03-26T07:56:30.969Z,96.48
2023-03-26T07:57:15.736Z,96.48
2023-03-26T07:59:59.203Z,96.39
2023-03-26T08:01:00.233Z,96.08
2023-03-26T08:02:00.408Z,95.77
2023-03-26T08:03:00.187Z,95.46
2023-03-26T08:04:00.308Z,95.46
2023-03-26T08:05:00.196Z,95.36
2023-03-26T08:06:00.154Z,95.42
2023-03-26T08:07:00.151Z,95.31
2023-03-26T08:25:52.389Z,93.68
2023-03-26T08:26:53.380Z,93.27
2023-03-26T08:27:53.152Z,92.66
2023-03-26T08:28:53.041Z,93.38
2023-03-26T08:35:01.528Z,93.27
2023-03-26T08:36:02.305Z,93.27
2023-03-26T08:37:02.682Z,93.38
2023-03-26T08:49:50.333Z,94.10
2023-03-26T08:50:51.449Z,93.48
2023-03-26T08:51:50.743Z,92.97
2023-03-26T08:52:50.779Z,93.38
2023-03-26T08:57:27.691Z,94.14
2023-03-26T09:29:41.149Z,92.93
2023-03-26T09:30:42.190Z,92.82
2023-03-26T09:31:42.096Z,92.72
2023-03-26T09:34:18.829Z,92.76
2023-03-26T09:35:19.953Z,92.76
2023-03-26T09:36:19.812Z,93.13
2023-03-26T09:37:19.746Z,93.23
2023-03-26T09:38:19.728Z,93.54
2023-03-26T09:39:19.737Z,93.74
2023-03-26T09:40:19.777Z,93.13
2023-03-26T09:41:19.706Z,92.51
2023-03-26T09:42:19.694Z,92.31
2023-03-26T09:43:19.694Z,92.31
2023-03-26T09:44:19.673Z,92.61
2023-03-26T09:45:28.847Z,93.33
2023-03-26T09:46:19.690Z,93.39
2023-03-26T09:47:19.690Z,93.70
2023-03-26T09:48:19.674Z,94.01
2023-03-26T09:49:19.610Z,93.08
2023-03-26T09:50:19.610Z,92.83
2023-03-26T09:51:19.596Z,92.88
2023-03-26T09:53:42.606Z,91.61
2023-03-26T09:54:50.983Z,91.96
2023-03-26T09:55:43.489Z,91.86
2023-03-26T09:56:43.458Z,91.65
2023-03-26T09:57:53.127Z,91.44
2023-03-26T09:59:56.180Z,92.57
2023-03-26T10:00:57.830Z,92.68
2023-03-26T10:01:57.162Z,92.47
2023-03-26T10:02:57.425Z,92.47
2023-03-26T10:03:57.215Z,92.16
2023-03-26T10:04:57.272Z,91.91
2023-03-26T10:17:27.153Z,92.47
2023-03-26T10:41:24.413Z,94.26
2023-03-26T10:44:19.470Z,94.98
2023-03-26T10:45:20.355Z,94.98
2023-03-26T10:46:20.545Z,95.28
2023-03-26T10:49:54.490Z,94.26
2023-03-26T10:50:55.099Z,94.26
2023-03-26T10:51:55.015Z,94.87
2023-03-26T10:52:54.776Z,95.39
2023-03-26T10:53:54.920Z,95.39
2023-03-26T10:55:10.517Z,95.18
2023-03-26T10:55:54.791Z,94.05
2023-03-26T10:57:07.165Z,94.05
2023-03-26T10:57:54.693Z,94.05
2023-03-26T10:59:02.665Z,94.46
2023-03-26T10:59:54.716Z,94.77
2023-03-26T11:00:54.882Z,94.98
2023-03-26T11:01:54.742Z,94.98
2023-03-26T11:02:54.682Z,94.87
2023-03-26T11:03:54.729Z,94.67
2023-03-26T11:04:54.664Z,94.77
2023-03-26T11:05:54.773Z,95.18
2023-03-26T11:06:54.707Z,95.18
2023-03-26T12:04:21.555Z,99.05
2023-03-26T12:04:55.498Z,98.33
2023-03-26T12:05:55.396Z,98.03
2023-03-26T12:06:56.226Z,98.38
2023-03-26T12:07:56.508Z,98.69
2023-03-26T12:08:55.270Z,99.21
2023-03-26T12:09:55.240Z,99.41
2023-03-26T12:10:55.349Z,99.31
2023-03-26T12:11:55.337Z,99.51
2023-03-26T12:12:55.203Z,99.46
2023-03-26T12:13:55.209Z,99.77
2023-03-26T12:14:55.344Z,99.99
2023-03-26T12:15:55.212Z,99.99
2023-03-26T12:16:57.083Z,99.99
2023-03-26T12:17:55.227Z,99.99
2023-03-26T12:18:55.363Z,99.99
2023-03-26T12:19:55.508Z,99.99
2023-03-26T12:20:55.403Z,99.99
2023-03-26T12:21:55.178Z,99.99
2023-03-26T12:22:55.216Z,99.99
2023-03-26T12:23:55.129Z,99.99
2023-03-26T12:24:55.077Z,98.12
2023-03-26T12:25:55.097Z,97.61
2023-03-26T12:26:55.062Z,96.00
2023-03-26T12:27:55.128Z,97.24
2023-03-26T12:28:55.054Z,98.84
2023-03-26T12:29:55.120Z,99.99
2023-03-26T12:30:55.374Z,99.99
2023-03-26T12:31:55.103Z,99.99
2023-03-26T12:32:55.118Z,99.99
2023-03-26T12:33:56.211Z,99.99
2023-03-26T12:34:54.986Z,99.99
2023-03-26T12:35:55.033Z,99.99
2023-03-26T12:36:54.955Z,99.71
2023-03-26T12:37:54.948Z,99.60
2023-03-26T12:39:15.984Z,99.30
2023-03-26T12:40:15.993Z,99.99
2023-03-26T12:40:55.068Z,99.99
2023-03-26T12:44:42.331Z,99.81
2023-03-26T12:44:59.714Z,98.99
2023-03-26T12:45:05.515Z,99.46
2023-03-26T12:47:57.561Z,99.35
2023-03-26T12:48:07.886Z,99.35
2023-03-26T12:48:13.391Z,99.56
2023-03-26T12:49:13.374Z,99.99
2023-03-26T12:50:13.360Z,99.99
2023-03-26T12:51:13.327Z,99.99
2023-03-26T12:52:13.277Z,99.99
2023-03-26T12:53:13.279Z,99.99
2023-03-26T12:54:13.258Z,99.21
2023-03-26T12:55:13.258Z,98.18
2023-03-26T12:56:13.260Z,98.12
2023-03-26T12:57:13.544Z,98.63
2023-03-26T12:58:14.026Z,99.66
2023-03-26T12:59:13.205Z,99.99
2023-03-26T13:00:13.205Z,99.66
2023-03-26T13:01:13.236Z,97.96
2023-03-26T13:02:13.242Z,97.75
2023-03-26T13:03:13.228Z,97.44
2023-03-26T13:04:13.177Z,97.24
2023-03-26T13:05:13.244Z,97.49
2023-03-26T13:06:13.153Z,98.52
2023-03-26T13:07:13.143Z,99.55
2023-03-26T13:08:13.195Z,99.91
2023-03-26T13:09:13.146Z,98.93
2023-03-26T13:10:13.120Z,99.04
2023-03-26T13:11:13.120Z,99.60
2023-03-26T13:12:13.107Z,99.96
2023-03-26T13:13:13.128Z,99.99
2023-03-26T13:14:13.070Z,99.99
2023-03-26T13:15:13.109Z,99.99
2023-03-26T13:16:13.158Z,99.99
2023-03-26T13:19:12.662Z,99.99
2023-03-26T13:20:13.634Z,99.99
2023-03-26T13:21:13.636Z,99.99
2023-03-26T13:22:13.684Z,99.99
2023-03-26T13:23:13.645Z,99.99
2023-03-26T13:24:13.613Z,99.99
2023-03-26T13:25:13.616Z,99.99
2023-03-26T13:26:13.577Z,99.99
2023-03-26T13:27:13.646Z,99.99
2023-03-26T13:28:13.558Z,99.99
2023-03-26T13:29:13.580Z,99.99
2023-03-26T13:30:13.546Z,99.99
2023-03-26T13:31:13.642Z,99.99
2023-03-26T13:32:13.531Z,99.40
2023-03-26T13:33:13.527Z,98.99
2023-03-26T13:34:13.576Z,97.34
2023-03-26T13:35:13.551Z,97.75
2023-03-26T13:36:23.208Z,98.06
2023-03-26T13:37:13.496Z,97.60
2023-03-26T13:38:13.478Z,98.00
2023-03-26T13:39:13.506Z,98.00
2023-03-26T13:40:13.453Z,98.32
2023-03-26T13:41:13.457Z,98.93
2023-03-26T13:42:13.415Z,99.24
2023-03-26T13:43:13.427Z,99.55
2023-03-26T13:44:13.536Z,99.65
2023-03-26T13:45:13.405Z,99.55
2023-03-26T13:46:13.386Z,98.83
2023-03-26T13:47:13.402Z,99.24
2023-03-26T13:48:13.380Z,99.65
2023-03-26T13:49:13.354Z,99.99
2023-03-26T13:50:13.366Z,99.99
2023-03-26T13:51:13.318Z,99.96
2023-03-26T13:52:13.319Z,99.76
2023-03-26T13:53:13.332Z,99.99
2023-03-26T13:54:13.277Z,99.96
2023-03-26T13:55:13.281Z,99.99
2023-03-26T13:56:13.270Z,99.99
2023-03-26T13:57:13.295Z,99.60
2023-03-26T13:58:13.239Z,99.76
2023-03-26T13:59:13.230Z,99.99
2023-03-26T14:00:13.247Z,99.99
2023-03-26T14:01:13.247Z,99.99
2023-03-26T14:02:13.193Z,99.99
2023-03-26T14:03:13.200Z,99.99
2023-03-26T14:04:13.183Z,99.90
2023-03-26T14:05:13.180Z,99.80
2023-03-26T14:06:13.208Z,99.99
2023-03-26T14:07:13.141Z,99.99
2023-03-26T14:08:13.150Z,99.99
2023-03-26T14:09:13.121Z,99.99
2023-03-26T14:10:13.143Z,99.99
2023-03-26T14:11:13.109Z,99.99
2023-03-26T14:12:21.168Z,99.99
2023-03-26T14:13:13.070Z,99.99
2023-03-26T14:14:13.075Z,99.99
2023-03-26T14:15:13.085Z,99.90
2023-03-26T14:16:13.162Z,99.43
2023-03-26T14:17:13.076Z,99.13
2023-03-26T14:18:13.059Z,99.74
2023-03-26T14:19:13.056Z,99.95
2023-03-26T14:20:13.020Z,99.43
2023-03-26T14:21:13.079Z,98.50
2023-03-26T14:22:12.998Z,97.38
2023-03-26T14:23:12.996Z,97.99
2023-03-26T14:24:13.069Z,98.20
2023-03-26T14:25:13.008Z,97.52
2023-03-26T14:26:12.987Z,98.35
2023-03-26T14:27:12.943Z,97.63
2023-03-26T14:28:12.929Z,98.35
2023-03-26T14:29:12.976Z,97.73
2023-03-26T14:30:12.930Z,98.03
2023-03-26T14:31:12.941Z,98.55
2023-03-26T14:32:12.893Z,97.83
2023-03-26T14:33:12.906Z,96.70
2023-03-26T14:34:12.884Z,97.11
2023-03-26T14:35:12.906Z,97.73
2023-03-26T14:36:12.880Z,96.70
2023-03-26T14:37:12.871Z,96.39
2023-03-26T14:38:12.881Z,97.52
2023-03-26T14:39:12.844Z,97.73
2023-03-26T14:40:12.884Z,97.31
2023-03-26T14:41:12.835Z,97.21
2023-03-26T14:42:12.825Z,96.49
2023-03-26T14:43:12.838Z,96.18
2023-03-26T14:44:12.856Z,97.63
2023-03-26T14:45:12.833Z,96.75
2023-03-26T14:46:12.999Z,96.96
2023-03-26T14:47:14.586Z,97.23
2023-03-26T14:48:13.138Z,96.14
2023-03-26T14:49:13.179Z,95.73
2023-03-26T14:50:24.048Z,96.86
2023-03-26T14:51:12.942Z,95.31
2023-03-26T14:52:12.834Z,96.14
2023-03-26T14:53:12.767Z,95.21
2023-03-26T14:54:13.444Z,96.92
2023-03-26T14:57:51.004Z,95.17
2023-03-26T15:06:17.500Z,97.06
2023-03-26T15:07:25.360Z,95.00
2023-03-26T15:08:18.440Z,96.34
2023-03-26T15:09:18.457Z,94.80
2023-03-26T15:14:54.289Z,94.80
2023-03-26T15:20:22.004Z,95.89
2023-03-26T15:21:23.038Z,93.11
2023-03-26T15:22:24.546Z,92.08
2023-03-26T15:23:22.901Z,92.38
2023-03-26T15:26:25.590Z,93.73
2023-03-26T15:27:25.807Z,93.11
2023-03-26T15:28:25.536Z,93.11
2023-03-26T15:29:25.566Z,93.11
2023-03-26T15:32:03.761Z,93.88
2023-03-26T15:37:26.517Z,93.23
2023-03-26T15:38:27.392Z,92.10
2023-03-26T15:39:27.332Z,90.59
2023-03-26T15:40:27.418Z,86.79
2023-03-26T15:41:28.225Z,88.43
2023-03-26T15:42:27.471Z,90.08
2023-03-26T15:43:37.952Z,86.16
2023-03-26T15:44:27.303Z,89.97
2023-03-26T15:53:58.482Z,86.79
2023-03-26T15:54:59.596Z,85.89
2023-03-26T15:55:59.470Z,87.54
2023-03-26T15:56:59.291Z,85.79
2023-03-26T15:57:59.233Z,88.26
2023-03-26T16:02:28.534Z,88.26
2023-03-26T16:03:40.354Z,89.81
2023-03-26T16:04:37.326Z,87.54
2023-03-26T16:05:32.239Z,88.43
2023-03-26T16:06:29.490Z,88.64
2023-03-26T16:07:29.569Z,85.07
2023-03-26T16:12:11.932Z,84.97
2023-03-26T16:13:12.807Z,85.94
2023-03-26T16:14:45.622Z,82.84
2023-03-26T16:15:13.078Z,85.01
2023-03-26T16:16:12.608Z,85.46
2023-03-26T16:17:12.522Z,84.84
2023-03-26T16:23:12.361Z,84.91
2023-03-26T16:24:13.347Z,84.12
2023-03-26T16:25:27.318Z,87.99
2023-03-26T16:26:13.129Z,83.87
2023-03-26T16:27:13.137Z,83.67
2023-03-26T16:33:17.226Z,82.37
2023-03-26T16:34:18.106Z,82.06
2023-03-26T16:35:17.989Z,81.13
2023-03-26T16:36:17.852Z,84.53
2023-03-26T16:46:03.732Z,82.26
2023-03-26T16:47:04.426Z,81.54
2023-03-26T16:48:04.257Z,84.64
2023-03-26T16:49:04.284Z,84.94
2023-03-26T16:50:09.058Z,84.43
2023-03-26T16:51:04.186Z,85.73
2023-03-26T16:52:04.240Z,83.26
2023-03-26T16:53:04.103Z,81.75
2023-03-26T16:54:04.189Z,84.08
2023-03-26T16:55:04.098Z,79.86
2023-03-26T16:56:04.283Z,82.26
2023-03-26T16:57:04.249Z,86.49
2023-03-26T16:58:04.477Z,82.47
2023-03-26T16:59:04.061Z,85.25
2023-03-26T17:00:06.014Z,82.68
2023-03-26T17:03:14.344Z,82.71
2023-03-26T17:04:15.296Z,84.84
2023-03-26T17:05:15.148Z,81.65
2023-03-26T17:11:56.074Z,80.34
2023-03-26T17:12:57.024Z,81.99
2023-03-26T17:13:59.925Z,84.88
2023-03-26T17:14:56.839Z,85.81
2023-03-26T17:15:56.825Z,83.27
2023-03-26T17:16:56.818Z,78.42
2023-03-26T18:01:05.985Z,73.29
2023-03-26T18:02:07.072Z,73.81
2023-03-26T18:03:07.034Z,77.94
2023-03-26T18:09:06.374Z,76.39
2023-03-26T18:10:08.902Z,75.15
2023-03-26T18:14:18.456Z,73.39
2023-03-26T18:16:40.574Z,75.53
2023-03-26T18:17:41.435Z,71.02
2023-03-26T18:18:41.347Z,70.72
2023-03-26T18:19:50.894Z,72.36
2023-03-26T18:46:45.015Z,72.50
2023-03-26T18:47:46.118Z,70.26
2023-03-26T18:48:45.945Z,74.98
2023-03-26T18:49:45.942Z,73.85
2023-03-26T18:50:45.908Z,73.85
2023-03-26T18:51:56.188Z,70.98
2023-03-26T18:52:45.927Z,72.02
2023-03-26T18:53:45.928Z,73.88
2023-03-26T18:54:45.866Z,72.74
2023-03-26T18:55:45.906Z,70.71
2023-03-26T18:56:45.909Z,75.22
2023-03-26T18:57:45.892Z,77.50
2023-03-26T18:58:45.837Z,72.43
2023-03-26T18:59:45.829Z,72.53
2023-03-26T19:00:45.813Z,70.29
2023-03-26T19:01:47.405Z,70.19
2023-03-26T19:02:45.833Z,71.74
2023-03-26T19:03:45.902Z,70.95
2023-03-26T19:04:47.131Z,73.22
2023-03-26T19:05:45.786Z,71.15
2023-03-26T19:06:45.762Z,72.19
2023-03-26T19:07:45.764Z,71.15
2023-03-26T19:08:46.436Z,75.19
2023-03-26T19:09:45.716Z,76.01
2023-03-26T19:10:45.807Z,71.05
2023-03-26T19:11:45.715Z,74.77
2023-03-26T19:12:45.776Z,72.91
2023-03-26T19:13:45.696Z,73.43
2023-03-26T19:14:45.738Z,71.50
2023-03-26T19:15:45.852Z,70.15
2023-03-26T19:16:45.687Z,72.33
2023-03-26T19:17:45.772Z,71.29
2023-03-26T19:18:45.632Z,73.46
2023-03-26T19:19:45.699Z,72.12
2023-03-26T19:20:45.631Z,74.50
2023-03-26T19:21:45.643Z,75.32
2023-03-26T19:22:45.582Z,70.47
2023-03-26T19:23:45.597Z,74.71
2023-03-26T19:24:45.650Z,71.39
2023-03-26T19:25:45.564Z,72.77
2023-03-26T19:26:45.608Z,76.98
2023-03-26T19:27:45.842Z,74.08
2023-03-26T19:36:27.784Z,73.11
2023-03-26T19:37:28.734Z,74.08
2023-03-26T19:38:28.698Z,72.32
2023-03-26T19:55:00.006Z,74.08
2023-03-26T19:55:58.432Z,78.96
2023-03-26T19:56:58.791Z,78.33
2023-03-26T19:57:58.459Z,77.36
2023-03-26T19:58:58.477Z,80.78
2023-03-26T19:59:58.433Z,79.40
2023-03-26T20:00:58.889Z,77.12
2023-03-26T20:01:58.470Z,71.28
2023-03-26T20:02:58.532Z,76.67
2023-03-26T20:03:58.534Z,76.36
2023-03-26T20:04:58.408Z,78.12
2023-03-26T20:05:58.442Z,75.15
2023-03-26T20:06:58.369Z,75.46
2023-03-26T20:07:58.402Z,73.11
2023-03-26T20:08:58.375Z,75.81
2023-03-26T20:09:58.379Z,80.89
2023-03-26T20:10:59.183Z,79.71
2023-03-26T20:11:58.340Z,76.71
2023-03-26T20:12:58.333Z,74.36
2023-03-26T20:13:58.314Z,80.33
2023-03-26T20:14:58.288Z,78.99
2023-03-26T20:16:05.886Z,76.09
2023-03-26T20:16:58.312Z,80.61
2023-03-26T20:17:58.303Z,78.02
2023-03-26T20:18:58.248Z,77.19
2023-03-26T20:19:58.284Z,81.54
2023-03-26T20:20:58.472Z,74.81
2023-03-26T20:21:58.141Z,78.16
2023-03-26T20:22:58.203Z,78.68
2023-03-26T20:23:58.208Z,77.19
2023-03-26T20:24:58.182Z,78.99
2023-03-26T20:25:58.347Z,80.92
2023-03-26T20:26:58.195Z,77.33
2023-03-26T20:27:58.149Z,76.29
2023-03-26T20:28:58.122Z,78.27
2023-03-26T20:29:58.180Z,78.30
2023-03-26T20:30:58.347Z,80.23
2023-03-26T20:31:58.853Z,76.12
2023-03-26T20:33:11.879Z,78.20
2023-03-26T20:33:58.093Z,79.13
2023-03-26T20:34:58.243Z,78.82
2023-03-26T20:35:58.917Z,79.24
2023-03-26T20:37:01.338Z,79.51
2023-03-26T20:37:58.026Z,77.23
2023-03-26T20:38:58.067Z,77.06
2023-03-26T20:39:58.041Z,76.75
2023-03-26T20:40:58.222Z,77.37
2023-03-26T20:41:57.995Z,80.06
2023-03-26T20:42:57.984Z,80.68
2023-03-26T20:43:57.988Z,82.03
2023-03-26T20:44:57.981Z,84.48
2023-03-26T20:45:58.218Z,76.75
2023-03-26T20:46:58.014Z,78.13
2023-03-26T20:47:57.967Z,77.09
2023-03-26T20:48:57.997Z,79.58
2023-03-26T20:49:57.911Z,82.45
2023-03-26T20:50:57.894Z,78.92
2023-03-26T20:51:58.058Z,79.38
2023-03-26T20:52:57.872Z,82.24
2023-03-26T20:53:58.494Z,79.24
2023-03-26T20:54:57.959Z,76.68
2023-03-26T20:55:57.809Z,82.07
2023-03-26T20:56:57.852Z,79.90
2023-03-26T20:57:57.818Z,81.24
2023-03-26T20:59:09.857Z,78.23
2023-03-26T20:59:57.869Z,81.35
2023-03-26T21:00:58.005Z,76.68
2023-03-26T21:01:58.173Z,77.51
2023-03-26T21:03:11.488Z,79.48
2023-03-26T21:03:57.770Z,81.14
2023-03-26T21:04:57.772Z,78.96
2023-03-26T21:05:57.823Z,77.92
2023-03-26T21:07:07.025Z,79.30
2023-03-26T21:07:57.724Z,80.35
2023-03-26T21:08:57.757Z,80.35
2023-03-26T21:09:57.745Z,76.50
2023-03-26T21:10:57.837Z,80.66
2023-03-26T21:11:57.693Z,78.27
2023-03-26T21:12:57.674Z,80.97
2023-03-26T21:13:57.661Z,80.97
2023-03-26T21:14:57.671Z,81.28
2023-03-26T21:15:59.431Z,83.46
2023-03-26T21:16:57.713Z,78.27
2023-03-26T21:17:57.680Z,79.97
2023-03-26T21:18:57.607Z,80.38
2023-03-26T21:19:57.624Z,79.34
2023-03-26T21:20:58.648Z,78.30
2023-03-26T21:21:57.614Z,80.80
2023-03-26T21:22:57.613Z,79.65
2023-03-26T21:23:57.611Z,80.38
2023-03-26T21:24:57.542Z,78.65
2023-03-26T21:25:57.543Z,84.47
2023-03-26T21:26:57.550Z,81.35
2023-03-26T21:27:57.543Z,80.73
2023-03-26T21:28:57.547Z,81.25
2023-03-26T21:29:57.518Z,82.81
2023-03-26T21:30:57.688Z,81.46
2023-03-26T21:31:57.547Z,84.84
2023-03-26T21:32:57.529Z,82.25
2023-03-26T21:33:57.474Z,82.56
2023-03-26T21:34:59.325Z,85.99
2023-03-26T21:35:57.520Z,83.91
2023-03-26T21:36:57.429Z,85.05
2023-03-26T21:37:57.480Z,85.74
2023-03-26T21:38:57.438Z,82.15
2023-03-26T21:39:57.403Z,83.60
2023-03-26T21:40:58.873Z,87.03
2023-03-26T21:42:04.512Z,83.50
2023-03-26T21:42:57.392Z,85.88
2023-03-26T21:43:57.371Z,84.53
2023-03-26T21:44:57.369Z,83.29
2023-03-26T21:45:57.397Z,82.60
2023-03-26T21:46:57.333Z,87.27
2023-03-26T21:47:57.379Z,85.82
2023-03-26T21:48:57.318Z,88.59
2023-03-26T21:49:57.338Z,84.84
2023-03-26T21:50:57.446Z,87.71
2023-03-26T21:51:57.270Z,83.81
2023-03-26T21:52:57.309Z,85.05
2023-03-26T21:53:57.275Z,87.03
2023-03-26T21:54:57.257Z,86.09
2023-03-26T21:55:57.232Z,86.19
2023-03-26T21:56:57.304Z,87.65
2023-03-26T21:57:57.196Z,88.48
2023-03-26T21:58:57.208Z,87.82
2023-03-26T21:59:57.193Z,83.39
2023-03-26T22:00:57.516Z,84.22
2023-03-26T22:01:57.182Z,86.19
2023-03-26T22:02:57.318Z,85.61
2023-03-26T22:03:57.188Z,86.76
2023-03-26T22:04:57.145Z,88.17
2023-03-26T22:05:57.139Z,90.14
2023-03-26T22:06:57.155Z,89.58
2023-03-26T22:07:57.119Z,85.68
2023-03-26T22:08:57.119Z,87.03
2023-03-26T22:09:57.087Z,89.79
2023-03-26T22:10:57.389Z,88.85
2023-03-26T22:11:57.083Z,84.53
2023-03-26T22:12:57.078Z,85.05
2023-03-26T22:13:57.058Z,83.18
2023-03-26T22:15:06.112Z,86.13
2023-03-26T22:15:57.130Z,85.30
2023-03-26T22:16:57.098Z,87.07
2023-03-26T22:17:57.182Z,87.69
2023-03-26T22:18:57.023Z,89.46
2023-03-26T22:19:57.012Z,85.10
2023-03-26T22:20:57.083Z,83.43
2023-03-26T22:21:56.983Z,83.16
2023-03-26T22:22:56.996Z,89.04
2023-03-26T22:23:56.982Z,88.21
2023-03-26T22:24:56.952Z,87.27
2023-03-26T22:25:56.945Z,86.96
2023-03-26T22:26:56.932Z,88.94
2023-03-26T22:27:56.943Z,87.90
2023-03-26T22:28:56.906Z,85.72
2023-03-26T22:29:56.933Z,83.37
2023-03-26T22:30:57.056Z,83.99
2023-03-26T22:31:56.932Z,86.17
2023-03-26T22:32:57.048Z,86.27
2023-03-26T22:33:56.874Z,84.55
2023-03-26T22:34:56.862Z,86.49
2023-03-26T22:35:56.885Z,86.07
2023-03-26T22:36:56.819Z,86.17
2023-03-26T22:38:00.836Z,84.03
2023-03-26T22:38:56.851Z,88.87
2023-03-26T22:39:56.801Z,87.94
2023-03-26T22:40:57.146Z,87.52
2023-03-26T22:41:56.781Z,84.75
2023-03-26T22:42:56.790Z,88.60
2023-03-26T22:43:58.025Z,90.75
2023-03-26T22:44:56.756Z,91.58
2023-03-26T22:45:56.794Z,91.53
2023-03-26T22:46:56.725Z,86.27
2023-03-26T22:48:03.239Z,86.27
2023-03-26T22:48:56.722Z,88.25
2023-03-26T22:49:56.685Z,88.56
2023-03-26T22:50:57.187Z,86.11
2023-03-26T22:51:56.709Z,88.25
2023-03-26T22:52:56.693Z,91.89
2023-03-26T22:53:56.653Z,88.15
2023-03-26T22:54:56.651Z,87.84
2023-03-26T22:55:56.631Z,89.08
2023-03-26T22:56:56.666Z,93.14
2023-03-26T22:57:56.628Z,90.91
2023-03-26T22:58:56.608Z,91.02
2023-03-26T22:59:56.595Z,87.32
2023-03-26T23:00:56.726Z,87.52
2023-03-26T23:01:56.706Z,84.34
2023-03-26T23:02:56.621Z,88.50
2023-03-26T23:03:56.673Z,88.50
2023-03-26T23:04:56.573Z,89.02
2023-03-26T23:05:56.518Z,89.02
2023-03-26T23:06:56.549Z,88.71
2023-03-26T23:07:56.515Z,92.61
2023-03-26T23:08:56.514Z,89.29
2023-03-26T23:09:56.507Z,86.27
2023-03-26T23:10:56.646Z,89.29
2023-03-26T23:11:56.437Z,87.35
2023-03-26T23:12:56.458Z,87.15
2023-03-26T23:13:56.459Z,88.09
2023-03-26T23:14:56.464Z,87.81
2023-03-26T23:15:56.482Z,91.00
2023-03-26T23:16:56.462Z,92.24
2023-03-26T23:17:56.439Z,86.42
2023-03-26T23:18:56.399Z,88.40
2023-03-26T23:19:56.393Z,88.71
2023-03-26T23:20:56.563Z,87.77
2023-03-26T23:21:56.385Z,87.60
2023-03-26T23:22:56.393Z,88.43
2023-03-26T23:23:56.356Z,89.43
2023-03-26T23:24:56.345Z,87.40
2023-03-26T23:25:56.339Z,88.12
2023-03-26T23:26:56.340Z,88.54
2023-03-26T23:28:10.583Z,89.48
2023-03-26T23:28:56.423Z,89.27
2023-03-26T23:29:56.324Z,89.89
2023-03-26T23:30:56.439Z,86.91
2023-03-26T23:31:56.350Z,90.41
2023-03-26T23:32:56.317Z,89.58
2023-03-26T23:33:56.278Z,93.54
2023-03-26T23:34:56.226Z,89.69
2023-03-26T23:35:56.297Z,89.17
2023-03-26T23:36:56.219Z,89.48
2023-03-26T23:37:56.229Z,88.75
2023-03-26T23:38:56.204Z,91.46
2023-03-26T23:39:56.226Z,89.79
2023-03-26T23:40:57.519Z,92.03
2023-03-26T23:41:56.175Z,91.41
2023-03-26T23:42:56.152Z,91.41
2023-03-26T23:43:56.162Z,89.85
2023-03-26T23:44:56.142Z,88.75
2023-03-26T23:45:56.169Z,87.92
2023-03-26T23:46:56.146Z,90.00
2023-03-26T23:47:56.138Z,91.35
2023-03-26T23:48:56.142Z,91.35
2023-03-26T23:49:56.115Z,89.69
2023-03-26T23:51:04.092Z,91.46
2023-03-26T23:51:56.081Z,92.91
2023-03-26T23:52:56.065Z,89.89
2023-03-26T23:53:56.078Z,90.20
2023-03-26T23:54:56.042Z,89.79
2023-03-26T23:55:56.034Z,91.14
2023-03-26T23:56:56.053Z,89.17
2023-03-26T23:57:56.033Z,89.94
2023-03-26T23:58:55.997Z,90.25
2023-03-26T23:59:56.008Z,89.83
